Colonie, NY

1:22 AM EST on February 22, 2017 (GMT -0500)
South Colonie - Cook Park Area | | Change Station

Elev 318 ft 42.71 °N, 73.84 °W | Updated 0 second ago

Overcast
Overcast
37.6 °F
Feels Like 38 °F
N
0.0
Wind Variable Wind from SW

Today
High -- | Low -- °F
--% Chance of Precip.
Yesterday
High -- | Low -- °F
Precip. -- in
Pressure 30.06 in
Visibility 10.0 miles
Clouds Scattered Clouds 3400 ft
Mostly Cloudy 4900 ft
Overcast 6000 ft
Windchill 38 °F
Dew Point 30 °F
Humidity 74%
Rainfall 0.00 in
Snow Depth Not available.
6:41 AM 5:36 PM
Waning Crescent, 19% visible
METAR KALB 220551Z 16005KT 10SM SCT034 BKN049 OVC060 04/M01 A3005 RMK AO2 RAB23E51 SLP177 P0000 60000 T00391011 10061 20039 56014
Pressure 30.06 in
Visibility 10.0 miles
Clouds Scattered Clouds 3400 ft
Mostly Cloudy 4900 ft
Overcast 6000 ft
Windchill 38 °F
Dew Point 30 °F
Humidity 74%
Rainfall 0.00 in
Snow Depth Not available.
6:41 AM 5:36 PM
Waning Crescent, 19% visible
METAR KALB 220551Z 16005KT 10SM SCT034 BKN049 OVC060 04/M01 A3005 RMK AO2 RAB23E51 SLP177 P0000 60000 T00391011 10061 20039 56014

Get Your Daily Forecast Email!

Thanks for signing up!

Be on the lookout for a verification email in your inbox.

You'll start receiving the daily forecast at 8 AM.

×

10-Day Weather Forecast

Almanac

Astronomy

Feb. 22, 2017 Rise Set
Actual Time
Civil Twilight
Nautical Twilight
Astronomical Twilight
Moon
Length of Visible Light
Length of Day
Tomorrow will be .
, % of the Moon is Illuminated

Today's Extremes

State Highs State Lows

Community

WunderPhotos

Upload Photos

1,962,540 photos uploaded!

WunderBlog® & News

Nearby

Air Quality

  Air Quality AQ Index Pollutant
Not available.

Snow Depth

Station Depth Elevation

Earthquake Activity

City Distance Mag. Time & Date
Minimum magnitude displayed is 2.5.

Coastal Water Temperatures

Place Temperature

Stations

Nearby Weather Stations

Station Location Temp. Windchill Dew Point Humidity Wind Precip. Elev Updated Type
                   

Watches & Warnings

There are currently no watches in effect.